createdAt,value
2023-02-26T00:00:17.650Z,1.52
2023-02-26T00:02:19.533Z,2.25
2023-02-26T00:04:21.423Z,2.70
2023-02-26T00:06:24.296Z,2.40
2023-02-26T00:08:26.438Z,1.75
2023-02-26T00:10:28.464Z,2.25
2023-02-26T00:12:30.994Z,2.03
2023-02-26T00:14:32.844Z,2.20
2023-02-26T00:16:36.533Z,2.10
2023-02-26T00:18:38.674Z,1.73
2023-02-26T00:20:40.785Z,2.20
2023-02-26T00:22:43.291Z,2.53
2023-02-26T00:24:44.962Z,2.47
2023-02-26T00:26:46.593Z,2.03
2023-02-26T00:28:49.107Z,2.30
2023-02-26T00:30:51.268Z,1.60
2023-02-26T00:32:53.383Z,2.00
2023-02-26T00:34:55.481Z,2.17
2023-02-26T00:37:36.166Z,1.73
2023-02-26T00:39:43.854Z,2.30
2023-02-26T00:41:45.977Z,1.80
2023-02-26T00:43:48.469Z,2.07
2023-02-26T00:46:11.617Z,2.27
2023-02-26T00:48:25.349Z,2.20
2023-02-26T00:50:27.688Z,2.33
2023-02-26T00:52:39.592Z,1.73
2023-02-26T00:54:41.308Z,1.97
2023-02-26T00:56:42.970Z,2.20
2023-02-26T00:58:44.745Z,2.33
2023-02-26T01:00:46.432Z,2.10
2023-02-26T01:02:48.725Z,2.27
2023-02-26T01:04:51.078Z,2.20
2023-02-26T01:06:57.815Z,1.60
2023-02-26T01:09:08.406Z,1.70
2023-02-26T01:11:10.251Z,1.97
2023-02-26T01:13:12.580Z,1.63
2023-02-26T01:15:14.400Z,2.40
2023-02-26T01:17:24.950Z,2.20
2023-02-26T01:19:50.562Z,1.70
2023-02-26T01:22:16.606Z,1.40
2023-02-26T01:24:19.732Z,2.17
2023-02-26T01:26:28.005Z,2.13
2023-02-26T01:28:30.213Z,1.90
2023-02-26T01:30:32.282Z,1.93
2023-02-26T01:32:55.133Z,2.43
2023-02-26T01:35:07.251Z,1.80
2023-02-26T01:37:47.164Z,2.10
2023-02-26T01:40:13.841Z,2.10
2023-02-26T01:42:19.961Z,1.97
2023-02-26T01:44:33.996Z,1.70
2023-02-26T01:47:10.366Z,2.07
2023-02-26T01:49:18.799Z,2.40
2023-02-26T01:51:43.022Z,2.63
2023-02-26T01:53:44.676Z,2.00
2023-02-26T01:55:57.949Z,2.60
2023-02-26T01:58:00.963Z,3.07
2023-02-26T02:00:02.651Z,3.10
2023-02-26T02:02:07.192Z,2.30
2023-02-26T02:04:13.516Z,2.27
2023-02-26T02:06:21.363Z,1.93
2023-02-26T02:08:23.083Z,2.23
2023-02-26T02:10:25.143Z,1.90
2023-02-26T02:12:36.106Z,2.33
2023-02-26T02:14:50.191Z,2.00
2023-02-26T02:17:10.382Z,2.10
2023-02-26T02:19:39.110Z,1.90
2023-02-26T02:22:15.069Z,1.83
2023-02-26T02:24:49.460Z,1.90
2023-02-26T02:27:10.894Z,1.87
2023-02-26T02:29:37.461Z,2.47
2023-02-26T02:31:51.135Z,2.23
2023-02-26T02:34:03.806Z,2.27
2023-02-26T02:36:11.029Z,1.73
2023-02-26T02:38:21.679Z,1.90
2023-02-26T02:40:31.550Z,2.53
2023-02-26T02:42:38.011Z,2.20
2023-02-26T02:44:43.568Z,2.90
2023-02-26T02:46:47.110Z,2.47
2023-02-26T02:49:00.519Z,2.17
2023-02-26T02:51:06.350Z,2.07
2023-02-26T02:53:14.273Z,1.60
2023-02-26T02:55:25.345Z,2.03
2023-02-26T02:57:32.462Z,2.27
2023-02-26T02:59:40.329Z,2.13
2023-02-26T03:01:42.752Z,1.67
2023-02-26T03:04:05.899Z,2.30
2023-02-26T03:06:07.788Z,1.90
2023-02-26T03:08:13.256Z,2.37
2023-02-26T03:10:15.312Z,1.80
2023-02-26T03:12:16.990Z,2.87
2023-02-26T03:14:18.897Z,2.27
2023-02-26T03:16:55.620Z,2.60
2023-02-26T03:19:18.592Z,2.10
2023-02-26T03:21:29.251Z,2.50
2023-02-26T03:23:37.062Z,2.10
2023-02-26T03:25:53.900Z,2.10
2023-02-26T03:27:55.513Z,1.70
2023-02-26T03:30:03.851Z,2.27
2023-02-26T03:32:15.917Z,1.80
2023-02-26T03:34:36.004Z,2.20
2023-02-26T03:36:47.647Z,2.40
2023-02-26T03:39:01.096Z,2.83
2023-02-26T03:41:10.284Z,2.23
2023-02-26T03:43:15.606Z,2.20
2023-02-26T03:45:20.926Z,2.00
2023-02-26T03:47:23.092Z,1.70
2023-02-26T03:49:28.420Z,2.50
2023-02-26T03:51:30.702Z,2.07
2023-02-26T03:53:36.631Z,2.50
2023-02-26T03:56:06.703Z,2.23
2023-02-26T03:58:08.397Z,2.83
2023-02-26T04:00:11.426Z,1.80
2023-02-26T04:02:17.383Z,2.33
2023-02-26T04:04:30.996Z,2.23
2023-02-26T04:06:33.976Z,2.47
2023-02-26T04:08:35.885Z,2.47
2023-02-26T04:10:48.719Z,3.03
2023-02-26T04:12:50.627Z,1.97
2023-02-26T04:14:52.355Z,2.87
2023-02-26T04:16:54.150Z,2.97
2023-02-26T04:18:55.822Z,2.97
2023-02-26T04:20:57.445Z,2.63
2023-02-26T04:22:59.179Z,2.00
2023-02-26T04:25:00.842Z,2.13
2023-02-26T04:27:02.508Z,2.73
2023-02-26T04:29:04.405Z,2.47
2023-02-26T04:31:06.846Z,2.37
2023-02-26T04:33:08.680Z,2.30
2023-02-26T04:35:10.374Z,3.67
2023-02-26T04:37:12.110Z,2.97
2023-02-26T04:39:13.860Z,2.83
2023-02-26T04:41:15.539Z,2.83
2023-02-26T04:43:17.936Z,2.87
2023-02-26T04:45:19.624Z,2.50
2023-02-26T04:47:21.228Z,2.33
2023-02-26T04:49:23.047Z,2.10
2023-02-26T04:51:25.145Z,2.37
2023-02-26T04:53:26.846Z,2.70
2023-02-26T04:55:28.487Z,3.20
2023-02-26T04:57:30.117Z,2.67
2023-02-26T04:59:31.746Z,2.50
2023-02-26T05:01:33.598Z,2.40
2023-02-26T05:03:35.367Z,2.27
2023-02-26T05:05:37.062Z,2.57
2023-02-26T05:07:38.741Z,2.23
2023-02-26T05:09:40.491Z,1.67
2023-02-26T05:11:42.161Z,2.80
2023-02-26T05:13:44.164Z,2.73
2023-02-26T05:15:46.067Z,2.53
2023-02-26T05:17:47.735Z,3.07
2023-02-26T05:19:49.507Z,2.00
2023-02-26T05:21:51.142Z,2.60
2023-02-26T05:23:52.831Z,3.17
2023-02-26T05:25:58.113Z,3.17
2023-02-26T05:28:00.571Z,2.10
2023-02-26T05:30:02.229Z,2.47
2023-02-26T05:32:04.195Z,1.90
2023-02-26T05:34:05.963Z,2.47
2023-02-26T05:36:07.698Z,2.50
2023-02-26T05:38:09.355Z,3.33
2023-02-26T05:40:11.681Z,2.80
2023-02-26T05:42:13.336Z,3.57
2023-02-26T05:44:15.179Z,3.47
2023-02-26T05:46:16.960Z,3.17
2023-02-26T05:48:19.074Z,2.60
2023-02-26T05:50:20.749Z,2.60
2023-02-26T05:52:22.395Z,2.80
2023-02-26T05:54:24.480Z,2.60
2023-02-26T05:56:26.471Z,3.40
2023-02-26T05:58:28.371Z,3.00
2023-02-26T06:00:30.024Z,2.47
2023-02-26T06:02:31.657Z,2.17
2023-02-26T06:04:33.631Z,2.90
2023-02-26T06:06:35.556Z,2.63
2023-02-26T06:08:40.594Z,2.77
2023-02-26T06:10:42.872Z,2.17
2023-02-26T06:12:44.581Z,2.60
2023-02-26T06:14:46.299Z,2.87
2023-02-26T06:16:47.955Z,2.63
2023-02-26T06:18:50.101Z,2.47
2023-02-26T06:20:51.674Z,2.13
2023-02-26T06:22:53.344Z,2.80
2023-02-26T06:24:55.777Z,2.50
2023-02-26T06:26:57.429Z,2.70
2023-02-26T06:28:59.158Z,3.23
2023-02-26T06:31:00.902Z,2.83
2023-02-26T06:33:02.565Z,2.83
2023-02-26T06:35:06.324Z,2.40
2023-02-26T06:37:08.085Z,3.43
2023-02-26T06:39:09.982Z,2.60
2023-02-26T06:41:12.163Z,3.20
2023-02-26T06:43:13.908Z,2.60
2023-02-26T06:45:15.592Z,2.97
2023-02-26T06:47:17.638Z,2.27
2023-02-26T06:49:19.349Z,2.57
2023-02-26T06:51:21.062Z,2.63
2023-02-26T06:53:22.805Z,2.60
2023-02-26T06:55:27.456Z,2.67
2023-02-26T06:57:29.181Z,2.27
2023-02-26T06:59:31.264Z,2.23
2023-02-26T07:01:33.002Z,2.60
2023-02-26T07:03:34.842Z,3.10
2023-02-26T07:05:36.495Z,3.83
2023-02-26T07:07:38.180Z,2.13
2023-02-26T07:09:39.851Z,2.70
2023-02-26T07:11:41.494Z,4.23
2023-02-26T07:13:43.173Z,2.60
2023-02-26T07:15:46.254Z,2.33
2023-02-26T07:17:48.041Z,2.10
2023-02-26T07:19:51.408Z,2.20
2023-02-26T07:21:55.027Z,2.57
2023-02-26T07:23:56.654Z,2.43
2023-02-26T07:26:02.425Z,2.20
2023-02-26T07:28:04.822Z,2.20
2023-02-26T07:30:07.722Z,2.30
2023-02-26T07:32:09.611Z,2.77
2023-02-26T07:34:11.598Z,2.37
2023-02-26T07:36:14.105Z,3.00
2023-02-26T07:38:16.135Z,2.80
2023-02-26T07:40:19.173Z,1.70
2023-02-26T07:42:21.041Z,2.90
2023-02-26T07:44:22.730Z,2.93
2023-02-26T07:46:24.801Z,2.67
2023-02-26T07:48:26.761Z,2.50
2023-02-26T07:50:28.777Z,2.40
2023-02-26T07:52:30.452Z,2.47
2023-02-26T07:54:32.199Z,3.00
2023-02-26T07:56:33.860Z,1.97
2023-02-26T07:58:35.485Z,2.17
2023-02-26T08:00:37.256Z,3.10
2023-02-26T08:02:38.848Z,2.37
2023-02-26T08:04:40.599Z,1.80
2023-02-26T08:06:42.407Z,2.67
2023-02-26T08:08:44.129Z,3.03
2023-02-26T08:10:45.792Z,1.67
2023-02-26T08:12:47.420Z,2.20
2023-02-26T08:14:49.310Z,1.73
2023-02-26T08:16:51.219Z,1.90
2023-02-26T08:18:52.904Z,1.63
2023-02-26T08:20:54.540Z,2.10
2023-02-26T08:22:56.192Z,2.97
2023-02-26T08:24:57.870Z,2.30
2023-02-26T08:26:59.516Z,1.90
2023-02-26T08:29:01.182Z,2.07
2023-02-26T08:31:03.658Z,2.43
2023-02-26T08:33:05.648Z,2.07
2023-02-26T08:35:07.552Z,2.27
2023-02-26T08:37:11.741Z,2.67
2023-02-26T08:39:13.607Z,2.37
2023-02-26T08:41:15.253Z,1.90
2023-02-26T08:43:16.836Z,1.83
2023-02-26T08:45:18.525Z,2.60
2023-02-26T08:47:28.429Z,1.83
2023-02-26T08:49:31.035Z,2.43
2023-02-26T08:51:33.128Z,1.67
2023-02-26T08:53:34.749Z,1.70
2023-02-26T08:55:36.783Z,1.80
2023-02-26T08:57:38.387Z,2.10
2023-02-26T08:59:40.020Z,2.17
2023-02-26T09:01:41.785Z,2.10
2023-02-26T09:03:44.122Z,2.10
2023-02-26T09:05:45.921Z,3.10
2023-02-26T09:07:47.723Z,2.63
2023-02-26T09:09:49.404Z,2.40
2023-02-26T09:11:51.049Z,3.03
2023-02-26T09:13:52.886Z,3.23
2023-02-26T09:15:54.539Z,2.10
2023-02-26T09:17:56.252Z,3.00
2023-02-26T09:19:58.144Z,1.70
2023-02-26T09:21:59.762Z,2.93
2023-02-26T09:24:01.717Z,3.93
2023-02-26T09:26:04.030Z,3.17
2023-02-26T09:28:06.416Z,2.00
2023-02-26T09:30:11.688Z,2.33
2023-02-26T09:32:14.706Z,2.33
2023-02-26T09:34:16.491Z,1.83
2023-02-26T09:36:18.164Z,1.97
2023-02-26T09:38:19.895Z,1.83
2023-02-26T09:40:26.017Z,1.77
2023-02-26T09:42:49.365Z,2.47
2023-02-26T09:44:53.759Z,2.67
2023-02-26T09:47:04.244Z,1.30
2023-02-26T09:49:40.756Z,1.40
2023-02-26T09:51:43.011Z,1.57
2023-02-26T09:53:45.163Z,1.90
2023-02-26T09:55:50.717Z,2.00
2023-02-26T09:57:58.098Z,1.97
2023-02-26T10:00:00.686Z,1.87
2023-02-26T10:02:16.748Z,2.30
2023-02-26T10:04:20.606Z,2.00
2023-02-26T10:06:25.904Z,1.73
2023-02-26T10:08:34.096Z,1.70
2023-02-26T10:10:45.446Z,2.63
2023-02-26T10:12:48.844Z,2.40
2023-02-26T10:14:53.594Z,2.03
2023-02-26T10:17:00.074Z,1.90
2023-02-26T10:19:07.067Z,1.50
2023-02-26T10:21:33.224Z,2.00
2023-02-26T10:23:45.069Z,1.77
2023-02-26T10:25:51.845Z,1.80
2023-02-26T10:27:58.752Z,3.03
2023-02-26T10:30:07.994Z,2.60
2023-02-26T10:32:21.906Z,2.50
2023-02-26T10:34:45.577Z,2.30
2023-02-26T10:37:20.869Z,1.80
2023-02-26T10:39:40.318Z,2.07
2023-02-26T10:41:45.657Z,1.80
2023-02-26T10:43:57.074Z,1.40
2023-02-26T10:46:07.176Z,1.60
2023-02-26T10:48:29.938Z,1.67
2023-02-26T10:50:31.788Z,1.40
2023-02-26T10:52:36.169Z,1.87
2023-02-26T10:54:45.446Z,1.50
2023-02-26T10:56:47.559Z,2.03
2023-02-26T10:58:49.363Z,2.13
2023-02-26T11:00:54.308Z,1.70
2023-02-26T11:02:56.508Z,1.53
2023-02-26T11:05:07.076Z,1.63
2023-02-26T11:07:10.183Z,1.73
2023-02-26T11:09:18.580Z,1.63
2023-02-26T11:12:04.630Z,1.63
2023-02-26T11:14:06.705Z,2.13
2023-02-26T11:16:14.821Z,1.43
2023-02-26T11:18:20.854Z,1.77
2023-02-26T11:20:24.808Z,2.08
2023-02-26T11:22:29.657Z,1.60
2023-02-26T11:24:40.729Z,1.20
2023-02-26T11:26:46.463Z,1.93
2023-02-26T11:28:50.756Z,1.47
2023-02-26T11:30:54.474Z,1.50
2023-02-26T11:32:58.583Z,2.20
2023-02-26T11:35:00.225Z,1.93
2023-02-26T11:37:02.272Z,1.70
2023-02-26T11:39:19.163Z,1.77
2023-02-26T11:41:24.121Z,1.80
2023-02-26T11:43:28.485Z,1.60
2023-02-26T11:45:35.793Z,2.07
2023-02-26T11:47:37.630Z,1.70
2023-02-26T11:49:44.635Z,1.47
2023-02-26T11:51:47.717Z,1.25
2023-02-26T11:53:53.412Z,1.50
2023-02-26T11:56:01.993Z,1.70
2023-02-26T11:58:10.750Z,1.88
2023-02-26T12:00:33.851Z,1.77
2023-02-26T12:02:40.254Z,1.60
2023-02-26T12:04:46.101Z,2.13
2023-02-26T12:06:50.317Z,1.70
2023-02-26T12:08:53.539Z,1.50
2023-02-26T12:11:13.508Z,1.57
2023-02-26T12:13:22.385Z,1.67
2023-02-26T12:15:29.338Z,2.20
2023-02-26T12:18:01.494Z,1.30
2023-02-26T12:20:20.229Z,1.53
2023-02-26T12:22:40.712Z,1.83
2023-02-26T12:25:04.466Z,1.63
2023-02-26T12:27:43.363Z,1.60
2023-02-26T12:30:24.211Z,2.10
2023-02-26T12:32:33.380Z,1.75
2023-02-26T12:34:56.548Z,1.88
2023-02-26T12:37:01.218Z,1.75
2023-02-26T12:39:31.001Z,1.60
2023-02-26T12:42:07.672Z,1.35
2023-02-26T12:44:38.611Z,1.45
2023-02-26T12:47:02.375Z,1.67
2023-02-26T12:49:23.105Z,1.33
2023-02-26T12:51:51.497Z,1.47
2023-02-26T12:54:29.937Z,1.20
2023-02-26T12:57:18.361Z,1.90
2023-02-26T12:59:25.690Z,1.40
2023-02-26T13:01:34.127Z,1.30
2023-02-26T13:03:39.908Z,1.70
2023-02-26T13:05:54.730Z,1.55
2023-02-26T13:08:35.678Z,1.17
2023-02-26T13:11:09.682Z,1.23
2023-02-26T13:13:35.760Z,1.00
2023-02-26T13:16:04.492Z,1.00
2023-02-26T13:18:15.742Z,0.95
2023-02-26T13:20:20.141Z,1.27
2023-02-26T13:22:28.432Z,1.25
2023-02-26T13:24:39.094Z,1.00
2023-02-26T13:26:42.229Z,1.02
2023-02-26T13:28:48.586Z,1.10
2023-02-26T13:31:15.382Z,1.05
2023-02-26T13:33:21.137Z,0.95
2023-02-26T13:35:38.468Z,1.38
2023-02-26T13:37:43.004Z,1.75
2023-02-26T13:39:56.730Z,1.08
2023-02-26T13:42:13.226Z,1.15
2023-02-26T13:44:21.154Z,1.00
2023-02-26T13:46:44.658Z,0.90
2023-02-26T13:48:55.347Z,1.10
2023-02-26T13:51:09.565Z,1.15
2023-02-26T13:53:35.280Z,0.90
2023-02-26T13:55:49.860Z,1.10
2023-02-26T13:57:52.468Z,0.95
2023-02-26T14:00:18.809Z,1.15
2023-02-26T14:02:20.422Z,0.90
2023-02-26T14:04:25.148Z,1.13
2023-02-26T14:06:43.785Z,1.38
2023-02-26T14:08:47.357Z,1.15
2023-02-26T14:11:06.110Z,0.95
2023-02-26T14:13:22.481Z,1.20
2023-02-26T14:15:36.989Z,0.80
2023-02-26T14:17:40.688Z,1.15
2023-02-26T14:19:42.462Z,1.48
2023-02-26T14:21:49.738Z,0.95
2023-02-26T14:23:56.165Z,0.80
2023-02-26T14:26:05.139Z,0.80
2023-02-26T14:28:25.077Z,1.02
2023-02-26T14:30:34.115Z,1.08
2023-02-26T14:32:50.497Z,0.93
2023-02-26T14:34:55.372Z,1.10
2023-02-26T14:37:07.177Z,0.80
2023-02-26T14:39:18.688Z,0.90
2023-02-26T14:41:41.371Z,1.35
2023-02-26T14:43:46.294Z,1.35
2023-02-26T14:45:49.764Z,1.33
2023-02-26T14:47:51.616Z,1.00
2023-02-26T14:49:59.594Z,1.40
2023-02-26T14:52:38.680Z,1.20
2023-02-26T14:54:58.509Z,1.45
2023-02-26T14:57:09.379Z,1.00
2023-02-26T14:59:29.711Z,1.10
2023-02-26T15:01:50.651Z,1.35
2023-02-26T15:04:15.018Z,1.00
2023-02-26T15:06:32.688Z,1.27
2023-02-26T15:08:46.241Z,0.98
2023-02-26T15:11:16.500Z,1.02
2023-02-26T15:13:31.917Z,1.10
2023-02-26T15:16:04.062Z,1.10
2023-02-26T15:18:17.789Z,1.17
2023-02-26T15:20:22.235Z,0.90
2023-02-26T15:23:02.244Z,1.02
2023-02-26T15:25:06.687Z,1.10
2023-02-26T15:27:14.085Z,1.10
2023-02-26T15:29:16.304Z,1.08
2023-02-26T15:31:21.151Z,1.30
2023-02-26T15:33:25.058Z,1.00
2023-02-26T15:35:31.709Z,1.10
2023-02-26T15:37:36.010Z,1.10
2023-02-26T15:39:37.642Z,1.27
2023-02-26T15:41:40.060Z,1.00
2023-02-26T15:43:53.495Z,1.50
2023-02-26T15:45:57.129Z,1.65
2023-02-26T15:48:00.940Z,2.07
2023-02-26T15:50:03.071Z,1.73
2023-02-26T15:52:06.231Z,1.00
2023-02-26T15:54:07.895Z,2.27
2023-02-26T15:56:22.889Z,3.67
2023-02-26T15:58:54.965Z,2.05
2023-02-26T16:00:58.127Z,2.75
2023-02-26T16:02:59.834Z,1.25
2023-02-26T16:05:03.554Z,1.20
2023-02-26T16:07:05.277Z,1.45
2023-02-26T16:09:09.178Z,1.33
2023-02-26T16:11:11.918Z,1.30
2023-02-26T16:13:29.410Z,1.33
2023-02-26T16:15:34.930Z,1.70
2023-02-26T16:17:42.839Z,1.67
2023-02-26T16:19:46.220Z,2.15
2023-02-26T16:21:48.099Z,1.23
2023-02-26T16:23:51.089Z,1.00
2023-02-26T16:26:02.068Z,1.20
2023-02-26T16:28:13.636Z,1.20
2023-02-26T16:30:19.659Z,1.60
2023-02-26T16:32:21.475Z,1.00
2023-02-26T16:34:53.505Z,1.63
2023-02-26T16:36:55.752Z,1.35
2023-02-26T16:39:06.523Z,1.35
2023-02-26T16:41:10.983Z,1.00
2023-02-26T16:43:35.638Z,1.30
2023-02-26T16:45:37.220Z,1.30
2023-02-26T16:47:40.576Z,1.30
2023-02-26T16:49:43.849Z,1.38
2023-02-26T16:51:46.366Z,1.23
2023-02-26T16:54:03.159Z,0.90
2023-02-26T16:56:05.464Z,1.48
2023-02-26T16:58:09.197Z,0.98
2023-02-26T17:00:17.989Z,1.20
2023-02-26T17:02:25.359Z,1.40
2023-02-26T17:04:31.833Z,1.37
2023-02-26T17:06:39.018Z,1.83
2023-02-26T17:09:00.769Z,1.40
2023-02-26T17:11:10.330Z,1.85
2023-02-26T17:13:19.444Z,1.40
2023-02-26T17:15:29.819Z,1.60
2023-02-26T17:17:31.564Z,1.37
2023-02-26T17:19:34.020Z,1.20
2023-02-26T17:21:50.571Z,1.10
2023-02-26T17:23:52.426Z,1.53
2023-02-26T17:25:56.435Z,1.30
2023-02-26T17:27:58.149Z,1.57
2023-02-26T17:30:00.827Z,1.77
2023-02-26T17:32:03.001Z,1.45
2023-02-26T17:34:06.433Z,1.47
2023-02-26T17:36:14.263Z,1.00
2023-02-26T17:38:16.736Z,1.43
2023-02-26T17:40:28.761Z,1.50
2023-02-26T17:42:30.431Z,1.23
2023-02-26T17:44:32.159Z,1.80
2023-02-26T17:46:33.763Z,1.40
2023-02-26T17:48:35.698Z,1.13
2023-02-26T17:50:56.427Z,1.40
2023-02-26T17:52:58.062Z,1.20
2023-02-26T17:54:59.709Z,1.30
2023-02-26T17:57:01.506Z,1.47
2023-02-26T17:59:05.154Z,1.13
2023-02-26T18:01:10.364Z,1.37
2023-02-26T18:03:12.055Z,1.40
2023-02-26T18:05:13.881Z,0.80
2023-02-26T18:07:16.624Z,0.97
2023-02-26T18:09:18.362Z,0.93
2023-02-26T18:11:22.089Z,1.20
2023-02-26T18:13:23.978Z,1.23
2023-02-26T18:15:26.604Z,1.33
2023-02-26T18:17:31.164Z,1.20
2023-02-26T18:19:32.987Z,1.30
2023-02-26T18:21:34.756Z,2.00
2023-02-26T18:23:36.449Z,1.73
2023-02-26T18:25:39.604Z,1.50
2023-02-26T18:27:42.352Z,1.60
2023-02-26T18:29:44.205Z,1.60
2023-02-26T18:31:46.050Z,1.63
2023-02-26T18:33:48.459Z,1.47
2023-02-26T18:35:55.071Z,1.63
2023-02-26T18:37:57.357Z,1.47
2023-02-26T18:39:59.059Z,1.50
2023-02-26T18:42:00.774Z,1.57
2023-02-26T18:44:02.412Z,1.43
2023-02-26T18:46:04.289Z,1.23
2023-02-26T18:48:05.983Z,1.10
2023-02-26T18:50:09.828Z,1.43
2023-02-26T18:52:11.925Z,1.33
2023-02-26T18:54:13.678Z,0.97
2023-02-26T18:56:15.335Z,1.60
2023-02-26T18:58:17.685Z,1.53
2023-02-26T19:00:20.780Z,1.50
2023-02-26T19:02:22.427Z,1.43
2023-02-26T19:04:24.118Z,1.27
2023-02-26T19:06:25.888Z,1.47
2023-02-26T19:08:27.807Z,1.40
2023-02-26T19:10:31.539Z,1.33
2023-02-26T19:12:33.156Z,1.43
2023-02-26T19:14:35.024Z,1.67
2023-02-26T19:16:39.263Z,1.30
2023-02-26T19:18:41.204Z,1.40
2023-02-26T19:20:43.044Z,1.40
2023-02-26T19:22:46.538Z,1.20
2023-02-26T19:24:48.347Z,1.33
2023-02-26T19:26:49.954Z,1.20
2023-02-26T19:28:51.555Z,1.30
2023-02-26T19:30:55.900Z,1.50
2023-02-26T19:32:57.893Z,1.40
2023-02-26T19:34:59.852Z,1.33
2023-02-26T19:37:01.866Z,1.80
2023-02-26T19:39:06.619Z,1.60
2023-02-26T19:41:08.550Z,1.40
2023-02-26T19:43:11.003Z,1.10
2023-02-26T19:45:13.943Z,1.40
2023-02-26T19:47:15.540Z,1.30
2023-02-26T19:49:17.507Z,1.83
2023-02-26T19:51:19.181Z,1.20
2023-02-26T19:53:20.837Z,1.60
2023-02-26T19:55:22.490Z,1.37
2023-02-26T19:57:24.858Z,1.47
2023-02-26T19:59:26.572Z,2.23
2023-02-26T20:01:28.619Z,1.70
2023-02-26T20:03:30.935Z,1.77
2023-02-26T20:05:32.783Z,1.67
2023-02-26T20:07:34.703Z,1.80
2023-02-26T20:09:36.405Z,1.40
2023-02-26T20:11:39.626Z,1.50
2023-02-26T20:13:41.527Z,1.53
2023-02-26T20:15:44.199Z,1.63
2023-02-26T20:17:45.857Z,1.70
2023-02-26T20:19:47.603Z,1.70
2023-02-26T20:21:50.235Z,1.40
2023-02-26T20:23:51.832Z,1.70
2023-02-26T20:25:57.759Z,2.27
2023-02-26T20:27:59.864Z,1.70
2023-02-26T20:30:01.495Z,1.40
2023-02-26T20:32:03.408Z,1.60
2023-02-26T20:34:06.256Z,2.10
2023-02-26T20:36:09.216Z,1.60
2023-02-26T20:38:11.124Z,1.63
2023-02-26T20:40:13.052Z,1.93
2023-02-26T20:42:14.859Z,1.87
2023-02-26T20:44:17.043Z,1.80
2023-02-26T20:46:18.767Z,1.73
2023-02-26T20:48:20.579Z,1.77
2023-02-26T20:50:22.184Z,1.60
2023-02-26T20:52:24.337Z,1.57
2023-02-26T20:54:26.617Z,1.40
2023-02-26T20:56:28.267Z,2.07
2023-02-26T20:58:29.940Z,1.67
2023-02-26T21:00:31.830Z,1.70
2023-02-26T21:02:33.536Z,1.30
2023-02-26T21:04:35.298Z,1.77
2023-02-26T21:06:37.280Z,1.83
2023-02-26T21:08:38.953Z,1.90
2023-02-26T21:10:41.330Z,1.40
2023-02-26T21:12:42.968Z,1.67
2023-02-26T21:14:45.002Z,1.87
2023-02-26T21:16:46.735Z,2.00
2023-02-26T21:18:48.372Z,1.63
2023-02-26T21:20:50.637Z,2.40
2023-02-26T21:22:52.383Z,1.50
2023-02-26T21:24:54.020Z,1.80
2023-02-26T21:26:56.009Z,1.50
2023-02-26T21:28:57.736Z,1.53
2023-02-26T21:30:59.456Z,1.60
2023-02-26T21:33:01.104Z,2.13
2023-02-26T21:35:02.837Z,1.73
2023-02-26T21:37:07.545Z,1.63
2023-02-26T21:39:09.173Z,1.53
2023-02-26T21:41:10.889Z,2.10
2023-02-26T21:43:12.494Z,1.83
2023-02-26T21:45:14.285Z,2.30
2023-02-26T21:47:15.938Z,1.93
2023-02-26T21:49:20.185Z,1.57
2023-02-26T21:51:21.989Z,1.77
2023-02-26T21:53:23.795Z,1.70
2023-02-26T21:55:25.469Z,1.30
2023-02-26T21:57:30.207Z,1.80
2023-02-26T21:59:31.914Z,1.43
2023-02-26T22:01:33.986Z,2.13
2023-02-26T22:03:35.674Z,2.33
2023-02-26T22:05:37.748Z,1.57
2023-02-26T22:07:39.593Z,1.87
2023-02-26T22:09:41.870Z,2.60
2023-02-26T22:11:43.628Z,2.33
2023-02-26T22:13:45.209Z,3.80
2023-02-26T22:15:47.149Z,3.23
2023-02-26T22:17:48.740Z,2.43
2023-02-26T22:19:50.475Z,2.30
2023-02-26T22:21:52.135Z,2.87
2023-02-26T22:23:53.836Z,2.87
2023-02-26T22:25:55.527Z,2.60
2023-02-26T22:27:57.808Z,2.00
2023-02-26T22:29:59.530Z,2.77
2023-02-26T22:32:01.385Z,2.43
2023-02-26T22:34:03.116Z,2.13
2023-02-26T22:36:05.153Z,1.90
2023-02-26T22:38:06.834Z,2.90
2023-02-26T22:40:11.217Z,2.87
2023-02-26T22:42:12.923Z,2.33
2023-02-26T22:44:15.164Z,3.07
2023-02-26T22:46:17.585Z,2.03
2023-02-26T22:48:20.864Z,2.67
2023-02-26T22:50:22.665Z,2.43
2023-02-26T22:52:24.359Z,2.57
2023-02-26T22:54:26.136Z,3.70
2023-02-26T22:56:28.041Z,2.53
2023-02-26T22:58:29.657Z,3.23
2023-02-26T23:00:31.280Z,2.93
2023-02-26T23:02:32.882Z,2.60
2023-02-26T23:04:34.578Z,3.23
2023-02-26T23:06:36.862Z,3.00
2023-02-26T23:08:38.520Z,3.00
2023-02-26T23:10:40.170Z,3.77
2023-02-26T23:12:42.591Z,2.53
2023-02-26T23:14:44.286Z,3.20
2023-02-26T23:16:46.239Z,3.00
2023-02-26T23:18:48.300Z,2.97
2023-02-26T23:20:50.587Z,3.07
2023-02-26T23:22:52.180Z,3.93
2023-02-26T23:24:54.508Z,3.27
2023-02-26T23:26:56.182Z,3.00
2023-02-26T23:28:58.214Z,2.83
2023-02-26T23:30:59.970Z,3.23
2023-02-26T23:33:02.139Z,2.97
2023-02-26T23:35:04.063Z,3.23
2023-02-26T23:37:06.009Z,3.47
2023-02-26T23:39:08.684Z,3.13
2023-02-26T23:41:10.371Z,2.57
2023-02-26T23:43:12.030Z,3.57
2023-02-26T23:45:13.827Z,3.20
2023-02-26T23:47:15.514Z,4.17
2023-02-26T23:49:17.361Z,2.83
2023-02-26T23:51:19.003Z,2.77
2023-02-26T23:53:20.762Z,2.90
2023-02-26T23:55:22.431Z,3.17
2023-02-26T23:57:24.740Z,3.43
2023-02-26T23:59:26.411Z,4.17
